createdAt,value
2023-03-17T00:01:21.092Z,100188.00
2023-03-17T00:02:52.796Z,100178.80
2023-03-17T00:04:27.359Z,100174.00
2023-03-17T00:06:00.558Z,100170.00
2023-03-17T00:07:32.799Z,100179.40
2023-03-17T00:09:04.594Z,100189.80
2023-03-17T00:10:37.661Z,100194.60
2023-03-17T00:12:11.951Z,100195.00
2023-03-17T00:13:46.250Z,100198.20
2023-03-17T00:15:18.089Z,100199.80
2023-03-17T00:16:52.868Z,100202.40
2023-03-17T00:18:24.958Z,100212.40
2023-03-17T00:19:56.772Z,100214.40
2023-03-17T00:21:34.057Z,100224.60
2023-03-17T00:23:07.357Z,100225.40
2023-03-17T00:24:39.165Z,100221.80
2023-03-17T00:26:12.476Z,100226.00
2023-03-17T00:27:45.644Z,100227.80
2023-03-17T00:29:17.412Z,100231.40
2023-03-17T00:30:54.872Z,100229.20
2023-03-17T00:32:27.562Z,100233.80
2023-03-17T00:34:00.598Z,100230.20
2023-03-17T00:35:33.372Z,100229.20
2023-03-17T00:37:05.286Z,100232.20
2023-03-17T00:38:37.572Z,100232.80
2023-03-17T00:40:31.277Z,100239.60
2023-03-17T00:42:04.388Z,100248.80
2023-03-17T00:43:36.794Z,100250.80
2023-03-17T00:45:10.142Z,100250.60
2023-03-17T00:46:42.363Z,100247.60
2023-03-17T00:48:18.664Z,100246.80
2023-03-17T00:49:50.351Z,100243.40
2023-03-17T00:51:23.448Z,100244.40
2023-03-17T00:52:58.144Z,100243.60
2023-03-17T00:54:29.848Z,100246.60
2023-03-17T00:56:09.049Z,100242.20
2023-03-17T00:57:42.275Z,100249.00
2023-03-17T00:59:26.057Z,100247.00
2023-03-17T01:00:59.713Z,100242.40
2023-03-17T01:02:32.266Z,100237.60
2023-03-17T01:04:04.769Z,100233.00
2023-03-17T01:05:36.441Z,100231.20
2023-03-17T01:07:11.341Z,100223.80
2023-03-17T01:08:44.927Z,100217.20
2023-03-17T01:10:22.559Z,100207.00
2023-03-17T01:11:55.847Z,100201.00
2023-03-17T01:13:28.414Z,100194.00
2023-03-17T01:15:00.139Z,100188.40
2023-03-17T01:16:32.045Z,100186.80
2023-03-17T01:18:04.055Z,100189.80
2023-03-17T01:19:37.456Z,100187.80
2023-03-17T01:21:09.478Z,100189.40
2023-03-17T01:22:41.970Z,100185.00
2023-03-17T01:24:14.580Z,100181.40
2023-03-17T01:25:46.292Z,100181.00
2023-03-17T01:27:21.817Z,100179.60
2023-03-17T01:28:53.851Z,100179.20
2023-03-17T01:30:34.631Z,100176.20
2023-03-17T01:32:07.055Z,100170.80
2023-03-17T01:33:38.739Z,100165.40
2023-03-17T01:35:11.591Z,100166.60
2023-03-17T01:36:43.388Z,100178.40
2023-03-17T01:38:15.734Z,100174.60
2023-03-17T01:39:47.721Z,100174.40
2023-03-17T01:41:22.894Z,100174.40
2023-03-17T01:43:11.064Z,100174.60
2023-03-17T01:45:03.463Z,100162.80
2023-03-17T01:46:36.593Z,100160.00
2023-03-17T01:48:09.147Z,100151.20
2023-03-17T01:49:42.258Z,100151.40
2023-03-17T01:51:26.768Z,100145.40
2023-03-17T01:52:59.205Z,100146.20
2023-03-17T01:54:40.705Z,100142.00
2023-03-17T01:56:12.828Z,100132.80
2023-03-17T01:57:54.297Z,100127.40
2023-03-17T01:59:33.708Z,100124.80
2023-03-17T02:01:07.535Z,100121.00
2023-03-17T02:02:44.429Z,100123.00
2023-03-17T02:04:19.528Z,100123.20
2023-03-17T02:05:54.436Z,100120.00
2023-03-17T02:07:28.038Z,100110.60
2023-03-17T02:09:01.637Z,100109.00
2023-03-17T02:10:33.518Z,100108.20
2023-03-17T02:12:08.158Z,100105.00
2023-03-17T02:13:41.897Z,100101.60
2023-03-17T02:15:15.343Z,100104.60
2023-03-17T02:16:47.600Z,100106.00
2023-03-17T02:18:22.764Z,100103.20
2023-03-17T02:19:56.272Z,100101.00
2023-03-17T02:21:37.138Z,100101.20
2023-03-17T02:23:08.905Z,100104.00
2023-03-17T02:24:47.060Z,100097.40
2023-03-17T02:26:21.500Z,100095.40
2023-03-17T02:28:01.627Z,100095.60
2023-03-17T02:29:36.132Z,100098.00
2023-03-17T02:31:09.519Z,100098.60
2023-03-17T02:32:41.395Z,100099.00
2023-03-17T02:34:13.602Z,100097.20
2023-03-17T02:35:46.185Z,100096.40
2023-03-17T02:37:21.512Z,100093.00
2023-03-17T02:38:53.527Z,100100.60
2023-03-17T02:40:25.365Z,100108.40
2023-03-17T02:41:57.383Z,100103.20
2023-03-17T02:43:29.232Z,100106.60
2023-03-17T02:45:01.209Z,100108.20
2023-03-17T02:46:32.982Z,100100.60
2023-03-17T02:48:06.099Z,100105.40
2023-03-17T02:49:41.016Z,100104.80
2023-03-17T02:51:14.280Z,100108.60
2023-03-17T02:52:46.065Z,100101.60
2023-03-17T02:54:18.038Z,100102.20
2023-03-17T02:55:49.765Z,100099.60
2023-03-17T02:57:22.073Z,100098.80
2023-03-17T02:58:53.986Z,100101.00
2023-03-17T03:00:26.475Z,100099.40
2023-03-17T03:01:58.231Z,100105.00
2023-03-17T03:03:30.767Z,100103.80
2023-03-17T03:05:02.998Z,100107.80
2023-03-17T03:06:36.657Z,100111.40
2023-03-17T03:08:09.199Z,100109.60
2023-03-17T03:09:42.083Z,100112.80
2023-03-17T03:11:14.121Z,100116.00
2023-03-17T03:12:47.351Z,100111.40
2023-03-17T03:14:19.079Z,100115.80
2023-03-17T03:15:50.867Z,100115.60
2023-03-17T03:17:23.032Z,100114.20
2023-03-17T03:18:55.018Z,100115.60
2023-03-17T03:20:26.734Z,100121.80
2023-03-17T03:21:58.426Z,100119.40
2023-03-17T03:23:30.774Z,100115.40
2023-03-17T03:25:02.915Z,100117.20
2023-03-17T03:26:35.168Z,100118.00
2023-03-17T03:28:08.396Z,100116.60
2023-03-17T03:29:40.219Z,100113.00
2023-03-17T03:31:12.453Z,100107.80
2023-03-17T03:32:44.452Z,100097.00
2023-03-17T03:34:16.614Z,100095.00
2023-03-17T03:35:48.441Z,100096.60
2023-03-17T03:37:21.574Z,100105.80
2023-03-17T03:38:53.404Z,100104.80
2023-03-17T03:40:25.805Z,100102.80
2023-03-17T03:41:58.469Z,100101.20
2023-03-17T03:43:30.285Z,100097.00
2023-03-17T03:45:02.415Z,100097.40
2023-03-17T03:46:34.263Z,100100.20
2023-03-17T03:48:06.910Z,100099.00
2023-03-17T03:49:38.968Z,100100.20
2023-03-17T03:51:10.887Z,100103.20
2023-03-17T03:52:42.974Z,100101.60
2023-03-17T03:54:14.876Z,100101.60
2023-03-17T03:55:46.804Z,100102.20
2023-03-17T03:57:18.710Z,100101.20
2023-03-17T03:58:51.239Z,100098.80
2023-03-17T04:00:23.489Z,100090.60
2023-03-17T04:01:55.554Z,100091.60
2023-03-17T04:03:27.979Z,100093.20
2023-03-17T04:05:00.307Z,100089.20
2023-03-17T04:06:32.046Z,100092.20
2023-03-17T04:08:03.842Z,100083.40
2023-03-17T04:09:37.281Z,100086.40
2023-03-17T04:11:08.989Z,100089.80
2023-03-17T04:12:41.882Z,100092.00
2023-03-17T04:14:14.039Z,100098.80
2023-03-17T04:15:45.992Z,100101.00
2023-03-17T04:17:17.935Z,100100.40
2023-03-17T04:18:49.638Z,100093.40
2023-03-17T04:20:22.057Z,100094.20
2023-03-17T04:21:54.888Z,100088.40
2023-03-17T04:23:27.725Z,100094.80
2023-03-17T04:24:59.455Z,100090.60
2023-03-17T04:26:32.401Z,100089.20
2023-03-17T04:28:04.781Z,100093.20
2023-03-17T04:29:36.644Z,100088.40
2023-03-17T04:31:12.408Z,100090.60
2023-03-17T04:32:46.305Z,100085.60
2023-03-17T04:34:19.621Z,100086.80
2023-03-17T04:35:51.671Z,100082.60
2023-03-17T04:37:24.159Z,100083.40
2023-03-17T04:38:55.969Z,100088.20
2023-03-17T04:40:27.683Z,100094.60
2023-03-17T04:41:59.554Z,100091.00
2023-03-17T04:43:31.410Z,100094.60
2023-03-17T04:45:05.631Z,100094.60
2023-03-17T04:46:38.225Z,100093.40
2023-03-17T04:48:09.919Z,100088.60
2023-03-17T04:49:41.663Z,100082.60
2023-03-17T04:51:13.388Z,100078.00
2023-03-17T04:52:45.673Z,100071.60
2023-03-17T04:54:17.675Z,100076.60
2023-03-17T04:55:49.488Z,100075.20
2023-03-17T04:57:22.261Z,100085.60
2023-03-17T04:58:54.250Z,100087.40
2023-03-17T05:00:26.085Z,100087.60
2023-03-17T05:01:57.883Z,100091.80
2023-03-17T05:03:30.251Z,100093.60
2023-03-17T05:05:02.712Z,100089.60
2023-03-17T05:06:34.754Z,100086.80
2023-03-17T05:08:06.621Z,100093.60
2023-03-17T05:09:38.536Z,100093.60
2023-03-17T05:11:11.520Z,100102.40
2023-03-17T05:12:43.217Z,100104.40
2023-03-17T05:14:15.632Z,100098.60
2023-03-17T05:15:49.809Z,100099.80
2023-03-17T05:17:21.532Z,100097.60
2023-03-17T05:18:53.326Z,100090.80
2023-03-17T05:20:25.067Z,100086.80
2023-03-17T05:21:56.836Z,100083.20
2023-03-17T05:23:29.913Z,100084.20
2023-03-17T05:25:01.646Z,100082.80
2023-03-17T05:26:33.399Z,100084.80
2023-03-17T05:28:05.457Z,100082.60
2023-03-17T05:29:38.061Z,100084.40
2023-03-17T05:31:11.184Z,100083.80
2023-03-17T05:32:43.265Z,100084.60
2023-03-17T05:34:15.987Z,100081.80
2023-03-17T05:35:47.861Z,100087.60
2023-03-17T05:37:19.833Z,100086.80
2023-03-17T05:38:52.402Z,100085.00
2023-03-17T05:40:24.816Z,100088.20
2023-03-17T05:41:57.211Z,100094.20
2023-03-17T05:43:28.992Z,100088.80
2023-03-17T05:45:00.675Z,100084.40
2023-03-17T05:46:32.735Z,100083.80
2023-03-17T05:48:04.868Z,100080.80
2023-03-17T05:49:36.928Z,100078.00
2023-03-17T05:51:09.123Z,100076.00
2023-03-17T05:52:41.422Z,100080.00
2023-03-17T05:54:13.918Z,100087.40
2023-03-17T05:55:45.764Z,100095.60
2023-03-17T05:57:18.222Z,100093.40
2023-03-17T05:58:50.218Z,100100.60
2023-03-17T06:00:23.087Z,100101.40
2023-03-17T06:01:54.860Z,100101.80
2023-03-17T06:03:26.646Z,100103.80
2023-03-17T06:04:58.404Z,100099.20
2023-03-17T06:06:30.111Z,100097.60
2023-03-17T06:08:02.490Z,100096.00
2023-03-17T06:09:34.260Z,100097.40
2023-03-17T06:11:06.074Z,100097.00
2023-03-17T06:12:37.945Z,100094.20
2023-03-17T06:14:09.715Z,100093.00
2023-03-17T06:15:43.143Z,100086.40
2023-03-17T06:17:15.309Z,100081.40
2023-03-17T06:18:47.232Z,100077.40
2023-03-17T06:20:19.682Z,100075.80
2023-03-17T06:21:51.951Z,100072.40
2023-03-17T06:23:23.772Z,100072.20
2023-03-17T06:24:56.144Z,100074.40
2023-03-17T06:26:28.557Z,100070.60
2023-03-17T06:28:03.890Z,100081.40
2023-03-17T06:29:35.854Z,100081.60
2023-03-17T06:31:08.899Z,100086.40
2023-03-17T06:32:40.807Z,100083.80
2023-03-17T06:34:12.594Z,100080.80
2023-03-17T06:35:44.498Z,100076.20
2023-03-17T06:37:16.612Z,100075.20
2023-03-17T06:38:48.347Z,100077.20
2023-03-17T06:40:20.387Z,100076.40
2023-03-17T06:41:52.460Z,100076.60
2023-03-17T06:43:25.042Z,100075.40
2023-03-17T06:44:57.044Z,100073.00
2023-03-17T06:46:28.977Z,100072.80
2023-03-17T06:48:01.639Z,100076.60
2023-03-17T06:49:33.973Z,100077.40
2023-03-17T06:51:06.324Z,100083.60
2023-03-17T06:52:40.013Z,100081.00
2023-03-17T06:54:12.299Z,100081.40
2023-03-17T06:55:45.124Z,100087.40
2023-03-17T06:57:16.840Z,100084.20
2023-03-17T06:58:48.633Z,100083.00
2023-03-17T07:00:22.503Z,100079.60
2023-03-17T07:01:54.825Z,100084.00
2023-03-17T07:03:27.820Z,100085.60
2023-03-17T07:05:00.778Z,100082.60
2023-03-17T07:06:34.001Z,100080.60
2023-03-17T07:08:06.345Z,100076.80
2023-03-17T07:09:38.328Z,100075.80
2023-03-17T07:11:10.079Z,100075.80
2023-03-17T07:12:42.714Z,100077.40
2023-03-17T07:14:14.602Z,100068.80
2023-03-17T07:15:46.382Z,100074.60
2023-03-17T07:17:19.608Z,100084.40
2023-03-17T07:18:51.606Z,100079.40
2023-03-17T07:20:23.309Z,100083.60
2023-03-17T07:21:56.092Z,100085.00
2023-03-17T07:23:29.545Z,100088.00
2023-03-17T07:25:01.273Z,100089.40
2023-03-17T07:26:33.224Z,100087.20
2023-03-17T07:28:05.136Z,100085.00
2023-03-17T07:29:36.879Z,100087.20
2023-03-17T07:31:10.545Z,100087.80
2023-03-17T07:32:43.425Z,100091.40
2023-03-17T07:34:16.523Z,100090.20
2023-03-17T07:35:49.640Z,100084.20
2023-03-17T07:37:21.686Z,100082.80
2023-03-17T07:38:53.515Z,100079.80
2023-03-17T07:40:26.116Z,100080.80
2023-03-17T07:41:57.882Z,100080.80
2023-03-17T07:43:30.733Z,100082.80
2023-03-17T07:45:05.083Z,100085.80
2023-03-17T07:46:38.910Z,100090.80
2023-03-17T07:48:11.297Z,100088.60
2023-03-17T07:49:43.183Z,100090.20
2023-03-17T07:51:22.379Z,100092.00
2023-03-17T07:52:54.049Z,100091.20
2023-03-17T07:54:27.373Z,100091.40
2023-03-17T07:55:59.081Z,100087.40
2023-03-17T07:57:30.899Z,100081.20
2023-03-17T07:59:02.923Z,100081.60
2023-03-17T08:00:36.300Z,100086.20
2023-03-17T08:02:16.347Z,100090.80
2023-03-17T08:03:48.180Z,100090.00
2023-03-17T08:05:20.858Z,100085.80
2023-03-17T08:06:52.545Z,100086.80
2023-03-17T08:08:27.199Z,100081.00
2023-03-17T08:09:58.998Z,100082.20
2023-03-17T08:11:31.087Z,100082.60
2023-03-17T08:13:02.926Z,100079.00
2023-03-17T08:14:34.947Z,100076.40
2023-03-17T08:16:07.364Z,100071.00
2023-03-17T08:17:40.106Z,100075.00
2023-03-17T08:19:11.982Z,100076.20
2023-03-17T08:20:43.743Z,100076.40
2023-03-17T08:22:15.506Z,100079.40
2023-03-17T08:23:48.601Z,100082.40
2023-03-17T08:25:20.374Z,100087.00
2023-03-17T08:26:52.356Z,100084.80
2023-03-17T08:28:24.119Z,100094.00
2023-03-17T08:29:56.837Z,100096.80
2023-03-17T08:31:28.807Z,100094.20
2023-03-17T08:33:00.706Z,100095.00
2023-03-17T08:34:33.209Z,100098.40
2023-03-17T08:36:09.355Z,100099.60
2023-03-17T08:37:41.634Z,100099.80
2023-03-17T08:39:13.822Z,100091.40
2023-03-17T08:40:45.877Z,100091.40
2023-03-17T08:42:17.700Z,100093.40
2023-03-17T08:43:51.663Z,100089.80
2023-03-17T08:45:24.107Z,100088.40
2023-03-17T08:46:56.921Z,100091.60
2023-03-17T08:48:30.346Z,100093.40
2023-03-17T08:50:02.345Z,100095.60
2023-03-17T08:51:37.444Z,100093.40
2023-03-17T08:53:09.519Z,100093.80
2023-03-17T08:54:41.279Z,100093.20
2023-03-17T08:56:14.316Z,100099.80
2023-03-17T08:57:46.436Z,100093.20
2023-03-17T08:59:18.896Z,100093.80
2023-03-17T09:00:51.020Z,100091.60
2023-03-17T09:02:23.440Z,100092.40
2023-03-17T09:03:56.205Z,100097.60
2023-03-17T09:05:28.096Z,100096.80
2023-03-17T09:07:03.705Z,100097.80
2023-03-17T09:08:40.008Z,100107.40
2023-03-17T09:10:14.733Z,100105.00
2023-03-17T09:11:46.522Z,100106.40
2023-03-17T09:13:19.141Z,100100.80
2023-03-17T09:14:51.246Z,100095.60
2023-03-17T09:16:25.302Z,100094.20
2023-03-17T09:17:57.572Z,100092.00
2023-03-17T09:19:29.345Z,100092.20
2023-03-17T09:21:02.570Z,100092.60
2023-03-17T09:22:34.328Z,100095.00
2023-03-17T09:24:07.184Z,100096.60
2023-03-17T09:25:42.234Z,100088.60
2023-03-17T09:27:15.668Z,100087.60
2023-03-17T09:28:47.457Z,100090.20
2023-03-17T09:30:19.320Z,100092.20
2023-03-17T09:31:51.576Z,100098.80
2023-03-17T09:33:23.282Z,100098.00
2023-03-17T09:34:54.972Z,100102.00
2023-03-17T09:36:26.772Z,100103.60
2023-03-17T09:37:58.875Z,100104.20
2023-03-17T09:39:30.566Z,100104.20
2023-03-17T09:41:52.908Z,100102.20
2023-03-17T09:43:25.129Z,100103.20
2023-03-17T09:45:13.361Z,100105.00
2023-03-17T09:47:00.969Z,100108.20
2023-03-17T09:48:38.484Z,100115.80
2023-03-17T09:50:25.359Z,100117.60
2023-03-17T09:51:57.298Z,100109.00
2023-03-17T09:53:42.915Z,100105.00
2023-03-17T09:55:31.348Z,100110.00
2023-03-17T09:57:31.621Z,100114.20
2023-03-17T09:59:43.830Z,100103.20
2023-03-17T10:01:15.657Z,100099.80
2023-03-17T10:02:47.489Z,100094.00
2023-03-17T10:04:19.629Z,100092.60
2023-03-17T10:05:52.016Z,100088.20
2023-03-17T10:07:39.233Z,100086.60
2023-03-17T10:09:35.634Z,100087.40
2023-03-17T10:11:40.173Z,100084.20
2023-03-17T10:13:51.761Z,100091.60
2023-03-17T10:15:41.100Z,100087.60
2023-03-17T10:17:22.245Z,100083.20
2023-03-17T10:19:10.358Z,100087.20
2023-03-17T10:20:55.117Z,100089.60
2023-03-17T10:22:53.121Z,100089.20
2023-03-17T10:24:32.578Z,100087.20
2023-03-17T10:26:27.197Z,100085.20
2023-03-17T10:28:03.492Z,100090.20
2023-03-17T10:29:36.002Z,100092.80
2023-03-17T10:31:30.661Z,100086.40
2023-03-17T10:33:09.244Z,100088.80
2023-03-17T10:34:43.427Z,100080.80
2023-03-17T10:36:31.969Z,100082.00
2023-03-17T10:38:21.467Z,100086.00
2023-03-17T10:39:59.788Z,100091.60
2023-03-17T10:41:48.567Z,100093.20
2023-03-17T10:43:22.223Z,100098.60
2023-03-17T10:45:14.290Z,100098.40
2023-03-17T10:46:57.048Z,100099.80
2023-03-17T10:48:35.369Z,100097.20
2023-03-17T10:50:54.347Z,100095.80
2023-03-17T10:52:30.542Z,100094.20
2023-03-17T10:54:18.538Z,100093.20
2023-03-17T10:55:54.328Z,100094.80
2023-03-17T10:57:26.233Z,100090.00
2023-03-17T10:59:08.340Z,100085.00
2023-03-17T11:00:53.369Z,100082.00
2023-03-17T11:02:45.094Z,100083.40
2023-03-17T11:04:42.641Z,100081.40
2023-03-17T11:06:22.596Z,100078.00
2023-03-17T11:08:10.820Z,100074.20
2023-03-17T11:09:42.683Z,100074.20
2023-03-17T11:11:34.718Z,100069.20
2023-03-17T11:13:06.811Z,100063.00
2023-03-17T11:14:43.770Z,100060.00
2023-03-17T11:16:22.388Z,100061.60
2023-03-17T11:18:06.304Z,100062.00
2023-03-17T11:20:01.463Z,100062.60
2023-03-17T11:21:48.581Z,100070.40
2023-03-17T11:23:44.259Z,100068.80
2023-03-17T11:25:20.938Z,100069.80
2023-03-17T11:27:00.118Z,100069.20
2023-03-17T11:28:41.298Z,100069.80
2023-03-17T11:30:27.934Z,100064.60
2023-03-17T11:32:39.765Z,100059.60
2023-03-17T11:34:23.510Z,100057.40
2023-03-17T11:36:01.089Z,100061.20
2023-03-17T11:37:57.427Z,100064.60
2023-03-17T11:39:49.226Z,100061.20
2023-03-17T11:42:00.089Z,100060.60
2023-03-17T11:43:53.695Z,100052.80
2023-03-17T11:45:43.739Z,100052.40
2023-03-17T11:47:45.124Z,100052.20
2023-03-17T11:49:24.237Z,100048.20
2023-03-17T11:51:02.054Z,100047.00
2023-03-17T11:52:57.923Z,100044.60
2023-03-17T11:54:54.198Z,100046.40
2023-03-17T11:57:03.093Z,100045.20
2023-03-17T11:58:51.565Z,100043.80
2023-03-17T12:00:34.458Z,100040.40
2023-03-17T12:02:36.852Z,100044.60
2023-03-17T12:04:35.199Z,100037.80
2023-03-17T12:06:28.701Z,100040.60
2023-03-17T12:08:17.363Z,100041.60
2023-03-17T12:10:25.663Z,100039.40
2023-03-17T12:12:02.426Z,100041.80
2023-03-17T12:13:55.216Z,100044.00
2023-03-17T12:15:47.350Z,100038.00
2023-03-17T12:17:54.694Z,100033.00
2023-03-17T12:19:45.838Z,100037.20
2023-03-17T12:21:25.610Z,100036.40
2023-03-17T12:23:45.778Z,100039.40
2023-03-17T12:25:42.529Z,100030.60
2023-03-17T12:27:28.672Z,100026.00
2023-03-17T12:29:43.206Z,100019.40
2023-03-17T12:31:32.190Z,100019.40
2023-03-17T12:33:55.510Z,100022.20
2023-03-17T12:35:36.898Z,100022.60
2023-03-17T12:37:09.912Z,100013.60
2023-03-17T12:38:51.358Z,100016.40
2023-03-17T12:40:34.164Z,100020.40
2023-03-17T12:42:22.289Z,100017.40
2023-03-17T12:44:26.119Z,100018.80
2023-03-17T12:46:48.967Z,100014.80
2023-03-17T12:48:44.994Z,100013.20
2023-03-17T12:50:35.864Z,100015.60
2023-03-17T12:52:22.682Z,100013.20
2023-03-17T12:53:55.331Z,100014.20
2023-03-17T12:55:32.722Z,100015.00
2023-03-17T12:57:26.798Z,100007.80
2023-03-17T12:59:06.127Z,100009.80
2023-03-17T13:00:57.606Z,100005.40
2023-03-17T13:02:36.586Z,99998.20
2023-03-17T13:04:26.930Z,99998.40
2023-03-17T13:06:07.503Z,100002.60
2023-03-17T13:08:02.358Z,99996.60
2023-03-17T13:09:37.346Z,99997.00
2023-03-17T13:11:29.528Z,99997.60
2023-03-17T13:13:10.958Z,99993.20
2023-03-17T13:14:44.318Z,99991.20
2023-03-17T13:16:41.214Z,99988.20
2023-03-17T13:18:16.074Z,99988.20
2023-03-17T13:20:04.297Z,99990.60
2023-03-17T13:21:36.573Z,99994.40
2023-03-17T13:23:11.380Z,99990.20
2023-03-17T13:24:47.254Z,99988.00
2023-03-17T13:26:42.359Z,99987.00
2023-03-17T13:28:14.950Z,99987.00
2023-03-17T13:29:47.677Z,99980.20
2023-03-17T13:31:33.822Z,99979.00
2023-03-17T13:33:09.486Z,99974.00
2023-03-17T13:34:48.818Z,99972.20
2023-03-17T13:36:33.707Z,99971.80
2023-03-17T13:39:05.137Z,99979.60
2023-03-17T13:41:22.278Z,99980.00
2023-03-17T13:43:48.932Z,99982.20
2023-03-17T13:45:37.394Z,99981.20
2023-03-17T13:47:22.827Z,99983.20
2023-03-17T13:48:56.789Z,99978.00
2023-03-17T13:50:33.603Z,99979.60
2023-03-17T13:52:15.634Z,99973.80
2023-03-17T13:53:56.659Z,99971.00
2023-03-17T13:56:12.038Z,99969.20
2023-03-17T13:58:10.498Z,99969.00
2023-03-17T14:00:22.428Z,99968.80
2023-03-17T14:02:04.564Z,99963.20
2023-03-17T14:03:51.296Z,99963.20
2023-03-17T14:05:30.736Z,99963.00
2023-03-17T14:07:14.449Z,99964.40
2023-03-17T14:08:53.204Z,99961.60
2023-03-17T14:10:30.354Z,99955.20
2023-03-17T14:12:33.437Z,99952.00
2023-03-17T14:14:45.238Z,99954.00
2023-03-17T14:16:26.799Z,99954.00
2023-03-17T14:18:18.825Z,99955.00
2023-03-17T14:20:23.411Z,99949.40
2023-03-17T14:22:04.553Z,99953.60
2023-03-17T14:23:36.758Z,99953.60
2023-03-17T14:25:19.280Z,99956.20
2023-03-17T14:26:53.014Z,99960.60
2023-03-17T14:28:36.477Z,99957.60
2023-03-17T14:30:28.693Z,99959.80
2023-03-17T14:32:15.068Z,99960.80
2023-03-17T14:33:46.936Z,99956.20
2023-03-17T14:35:20.373Z,99957.20
2023-03-17T14:36:52.245Z,99964.00
2023-03-17T14:38:34.256Z,99965.80
2023-03-17T14:40:26.930Z,99969.80
2023-03-17T14:42:05.263Z,99967.20
2023-03-17T14:43:37.153Z,99963.60
2023-03-17T14:45:41.736Z,99962.80
2023-03-17T14:47:24.428Z,99960.00
2023-03-17T14:49:18.355Z,99958.80
2023-03-17T14:50:55.564Z,99956.80
2023-03-17T14:52:32.708Z,99958.40
2023-03-17T14:54:19.835Z,99957.80
2023-03-17T14:55:53.504Z,99949.20
2023-03-17T14:57:33.201Z,99946.00
2023-03-17T14:59:34.406Z,99942.80
2023-03-17T15:01:33.162Z,99946.60
2023-03-17T15:03:23.291Z,99943.80
2023-03-17T15:05:05.636Z,99944.80
2023-03-17T15:07:17.588Z,99947.40
2023-03-17T15:08:50.919Z,99939.20
2023-03-17T15:10:31.398Z,99935.20
2023-03-17T15:12:22.422Z,99931.80
2023-03-17T15:14:32.765Z,99934.80
2023-03-17T15:16:18.197Z,99938.20
2023-03-17T15:18:01.149Z,99941.20
2023-03-17T15:19:42.902Z,99943.60
2023-03-17T15:21:42.480Z,99945.40
2023-03-17T15:23:25.012Z,99940.80
2023-03-17T15:25:03.601Z,99942.20
2023-03-17T15:26:37.145Z,99938.60
2023-03-17T15:28:19.158Z,99934.00
2023-03-17T15:29:50.922Z,99936.00
2023-03-17T15:31:28.458Z,99942.80
2023-03-17T15:33:03.148Z,99943.00
2023-03-17T15:34:34.903Z,99947.00
2023-03-17T15:36:07.710Z,99944.60
2023-03-17T15:37:40.815Z,99949.20
2023-03-17T15:39:12.933Z,99951.20
2023-03-17T15:40:45.601Z,99953.40
2023-03-17T15:42:20.397Z,99952.00
2023-03-17T15:43:52.147Z,99956.80
2023-03-17T15:45:31.213Z,99960.60
2023-03-17T15:47:04.223Z,99958.40
2023-03-17T15:48:36.743Z,99959.40
2023-03-17T15:50:24.078Z,99964.40
2023-03-17T15:51:56.105Z,99966.60
2023-03-17T15:53:28.316Z,99966.40
2023-03-17T15:55:00.303Z,99957.20
2023-03-17T15:56:32.107Z,99951.00
2023-03-17T15:58:03.862Z,99948.00
2023-03-17T15:59:35.762Z,99948.60
2023-03-17T16:01:11.985Z,99954.00
2023-03-17T16:02:44.136Z,99956.00
2023-03-17T16:04:17.954Z,99954.60
2023-03-17T16:05:49.877Z,99952.80
2023-03-17T16:07:22.477Z,99955.00
2023-03-17T16:08:54.344Z,99947.40
2023-03-17T16:10:30.856Z,99941.00
2023-03-17T16:12:03.036Z,99949.40
2023-03-17T16:13:34.884Z,99956.60
2023-03-17T16:15:20.157Z,99964.60
2023-03-17T16:16:54.120Z,99967.40
2023-03-17T16:18:37.733Z,99971.40
2023-03-17T16:20:41.650Z,99967.20
2023-03-17T16:22:45.356Z,99969.80
2023-03-17T16:24:39.118Z,99968.40
2023-03-17T16:26:15.923Z,99973.40
2023-03-17T16:27:49.409Z,99973.40
2023-03-17T16:29:21.584Z,99973.60
2023-03-17T16:30:55.868Z,99971.20
2023-03-17T16:32:28.134Z,99969.20
2023-03-17T16:34:00.180Z,99972.20
2023-03-17T16:35:31.869Z,99970.40
2023-03-17T16:37:04.193Z,99965.40
2023-03-17T16:38:36.124Z,99964.20
2023-03-17T16:40:19.054Z,99969.00
2023-03-17T16:41:52.080Z,99969.40
2023-03-17T16:43:30.947Z,99967.00
2023-03-17T16:45:02.833Z,99960.60
2023-03-17T16:46:35.753Z,99954.00
2023-03-17T16:48:14.579Z,99953.40
2023-03-17T16:49:46.745Z,99958.20
2023-03-17T16:51:19.326Z,99958.40
2023-03-17T16:52:51.520Z,99958.00
2023-03-17T16:54:23.309Z,99951.60
2023-03-17T16:55:55.688Z,99955.60
2023-03-17T16:57:27.561Z,99950.80
2023-03-17T16:59:00.295Z,99953.60
2023-03-17T17:00:32.653Z,99954.40
2023-03-17T17:02:15.457Z,99952.60
2023-03-17T17:03:48.057Z,99961.20
2023-03-17T17:05:27.164Z,99961.80
2023-03-17T17:06:58.952Z,99959.00
2023-03-17T17:08:30.772Z,99964.60
2023-03-17T17:10:02.798Z,99966.40
2023-03-17T17:11:34.477Z,99971.20
2023-03-17T17:13:08.592Z,99969.80
2023-03-17T17:14:40.386Z,99968.40
2023-03-17T17:16:50.155Z,99968.60
2023-03-17T17:18:24.593Z,99973.60
2023-03-17T17:19:56.552Z,99974.40
2023-03-17T17:21:28.690Z,99974.00
2023-03-17T17:23:02.447Z,99976.20
2023-03-17T17:24:34.257Z,99978.40
2023-03-17T17:26:06.213Z,99972.80
2023-03-17T17:27:41.983Z,99975.40
2023-03-17T17:29:13.768Z,99976.80
2023-03-17T17:30:48.108Z,99973.00
2023-03-17T17:32:20.078Z,99975.60
2023-03-17T17:33:51.818Z,99989.20
2023-03-17T17:35:26.507Z,99997.80
2023-03-17T17:36:58.480Z,99995.40
2023-03-17T17:38:30.768Z,100000.20
2023-03-17T17:40:03.710Z,100000.00
2023-03-17T17:41:35.642Z,100003.20
2023-03-17T17:43:09.721Z,99997.40
2023-03-17T17:44:42.824Z,99992.60
2023-03-17T17:46:20.009Z,99992.80
2023-03-17T17:47:52.013Z,99988.60
2023-03-17T17:49:24.194Z,99991.20
2023-03-17T17:50:57.802Z,99992.20
2023-03-17T17:52:29.553Z,100000.20
2023-03-17T17:54:01.537Z,100008.40
2023-03-17T17:55:34.313Z,100013.80
2023-03-17T17:57:07.258Z,100020.20
2023-03-17T17:58:39.213Z,100022.60
2023-03-17T18:00:17.077Z,100018.20
2023-03-17T18:01:49.467Z,100029.20
2023-03-17T18:03:25.345Z,100034.40
2023-03-17T18:04:57.181Z,100026.80
2023-03-17T18:06:29.000Z,100023.40
2023-03-17T18:08:02.423Z,100017.20
2023-03-17T18:09:34.620Z,100015.20
2023-03-17T18:11:06.933Z,100008.60
2023-03-17T18:12:38.720Z,99999.80
2023-03-17T18:14:11.014Z,100011.40
2023-03-17T18:15:43.192Z,100015.60
2023-03-17T18:17:21.505Z,100019.40
2023-03-17T18:18:53.229Z,100011.40
2023-03-17T18:20:27.184Z,100008.00
2023-03-17T18:21:58.878Z,100006.60
2023-03-17T18:23:30.656Z,100009.20
2023-03-17T18:25:02.423Z,99995.80
2023-03-17T18:26:34.172Z,100002.00
2023-03-17T18:28:06.380Z,100008.00
2023-03-17T18:29:39.107Z,100005.40
2023-03-17T18:31:20.549Z,99999.40
2023-03-17T18:32:59.481Z,99985.00
2023-03-17T18:34:39.308Z,99986.20
2023-03-17T18:36:11.674Z,100003.40
2023-03-17T18:37:44.581Z,100026.40
2023-03-17T18:39:17.034Z,100041.40
2023-03-17T18:40:48.884Z,100050.00